Grand View, Tennessee
Current Conditions -  °F | °C
As of 6:53 PM on Friday 28 Nov 2014 (Local Time) from KCSV Reporting Station
Clear Clear  
Wind Chill: 31°   Ceiling: Unl
Heat Index: 36°   Visibility: 10mi
Dew Point: 18°   Wind: 6mph
Humidity: 48%   Direction: 180°S
Pressure: 30.21"   Gusts: NA
Location:  35.7648°N, 84.863°W
Report Text: KCSV 282353Z AUTO 18005KT 10SM CLR 02/M08 A3021 RMK AO2 SLP247 T00221078 10067 20022 56005
Loading
Personal Weather Stations






























Interactive Weather Map New forecast layout! Learn more

10-Day Weather Forecast

Advertisements
Track Severe Weather on mobile